sensor_id;sensor_type;location;lat;lon;timestamp;pressure;altitude;pressure_sealevel;temperature;humidity
67987;BME280;54767;53.800;15.956;2023-03-19T00:01:03;100144.86;;;7.22;66.51
67987;BME280;54767;53.800;15.956;2023-03-19T00:03:41;100146.13;;;7.24;66.47
67987;BME280;54767;53.800;15.956;2023-03-19T00:06:09;100148.22;;;7.24;66.75
67987;BME280;54767;53.800;15.956;2023-03-19T00:08:39;100146.83;;;7.26;66.69
67987;BME280;54767;53.800;15.956;2023-03-19T00:11:10;100143.52;;;7.26;66.75
67987;BME280;54767;53.800;15.956;2023-03-19T00:13:39;100145.98;;;7.26;66.62
67987;BME280;54767;53.800;15.956;2023-03-19T00:16:08;100143.70;;;7.26;66.70
67987;BME280;54767;53.800;15.956;2023-03-19T00:18:36;100144.76;;;7.27;66.59
67987;BME280;54767;53.800;15.956;2023-03-19T00:21:05;100138.67;;;7.27;67.02
67987;BME280;54767;53.800;15.956;2023-03-19T00:23:33;100146.85;;;7.27;66.83
67987;BME280;54767;53.800;15.956;2023-03-19T00:26:02;100139.20;;;7.27;66.89
67987;BME280;54767;53.800;15.956;2023-03-19T00:28:31;100140.28;;;7.29;66.76
67987;BME280;54767;53.800;15.956;2023-03-19T00:31:14;100142.05;;;7.32;67.03
67987;BME280;54767;53.800;15.956;2023-03-19T00:33:44;100142.94;;;7.34;66.96
67987;BME280;54767;53.800;15.956;2023-03-19T00:36:13;100143.13;;;7.35;66.88
67987;BME280;54767;53.800;15.956;2023-03-19T00:38:44;100139.48;;;7.35;66.72
67987;BME280;54767;53.800;15.956;2023-03-19T00:41:13;100138.60;;;7.34;66.86
67987;BME280;54767;53.800;15.956;2023-03-19T00:43:44;100136.99;;;7.32;66.98
67987;BME280;54767;53.800;15.956;2023-03-19T00:46:13;100138.36;;;7.31;66.85
67987;BME280;54767;53.800;15.956;2023-03-19T00:48:44;100141.63;;;7.27;66.94
67987;BME280;54767;53.800;15.956;2023-03-19T00:51:12;100143.36;;;7.26;66.95
67987;BME280;54767;53.800;15.956;2023-03-19T00:53:43;100138.80;;;7.24;66.84
67987;BME280;54767;53.800;15.956;2023-03-19T00:56:13;100139.65;;;7.22;67.08
67987;BME280;54767;53.800;15.956;2023-03-19T00:58:43;100143.80;;;7.19;66.97
67987;BME280;54767;53.800;15.956;2023-03-19T01:01:15;100139.77;;;7.18;67.03
67987;BME280;54767;53.800;15.956;2023-03-19T01:03:44;100142.04;;;7.18;67.24
67987;BME280;54767;53.800;15.956;2023-03-19T01:06:13;100135.60;;;7.19;67.18
67987;BME280;54767;53.800;15.956;2023-03-19T01:08:41;100135.94;;;7.19;67.15
67987;BME280;54767;53.800;15.956;2023-03-19T01:11:12;100140.09;;;7.16;66.99
67987;BME280;54767;53.800;15.956;2023-03-19T01:13:42;100131.87;;;7.13;67.15
67987;BME280;54767;53.800;15.956;2023-03-19T01:16:10;100133.41;;;7.12;67.18
67987;BME280;54767;53.800;15.956;2023-03-19T01:18:39;100137.92;;;7.11;67.08
67987;BME280;54767;53.800;15.956;2023-03-19T01:21:07;100136.69;;;7.10;67.23
67987;BME280;54767;53.800;15.956;2023-03-19T01:23:36;100135.08;;;7.07;66.96
67987;BME280;54767;53.800;15.956;2023-03-19T01:26:05;100134.71;;;7.05;67.37
67987;BME280;54767;53.800;15.956;2023-03-19T01:28:34;100137.14;;;7.04;67.51
67987;BME280;54767;53.800;15.956;2023-03-19T01:31:07;100139.21;;;7.03;67.42
67987;BME280;54767;53.800;15.956;2023-03-19T01:33:36;100136.23;;;7.03;67.43
67987;BME280;54767;53.800;15.956;2023-03-19T01:36:05;100138.73;;;7.06;67.46
67987;BME280;54767;53.800;15.956;2023-03-19T01:38:34;100139.44;;;7.07;67.57
67987;BME280;54767;53.800;15.956;2023-03-19T01:41:02;100139.06;;;7.06;67.49
67987;BME280;54767;53.800;15.956;2023-03-19T01:43:32;100143.06;;;7.05;67.56
67987;BME280;54767;53.800;15.956;2023-03-19T01:48:54;100135.00;;;7.01;67.48
67987;BME280;54767;53.800;15.956;2023-03-19T01:51:30;100135.99;;;6.98;67.48
67987;BME280;54767;53.800;15.956;2023-03-19T01:54:03;100135.08;;;6.95;67.39
67987;BME280;54767;53.800;15.956;2023-03-19T01:56:34;100140.80;;;6.93;67.53
67987;BME280;54767;53.800;15.956;2023-03-19T01:59:09;100136.41;;;6.90;67.28
67987;BME280;54767;53.800;15.956;2023-03-19T02:02:00;100136.89;;;6.88;67.57
67987;BME280;54767;53.800;15.956;2023-03-19T02:04:32;100140.01;;;6.88;67.60
67987;BME280;54767;53.800;15.956;2023-03-19T02:07:04;100138.23;;;6.85;67.67
67987;BME280;54767;53.800;15.956;2023-03-19T02:09:34;100136.98;;;6.83;67.53
67987;BME280;54767;53.800;15.956;2023-03-19T02:12:03;100137.30;;;6.81;67.66
67987;BME280;54767;53.800;15.956;2023-03-19T02:14:31;100135.52;;;6.77;67.45
67987;BME280;54767;53.800;15.956;2023-03-19T02:17:00;100138.58;;;6.74;67.39
67987;BME280;54767;53.800;15.956;2023-03-19T02:19:42;100139.58;;;6.70;67.45
67987;BME280;54767;53.800;15.956;2023-03-19T02:22:17;100141.26;;;6.67;67.53
67987;BME280;54767;53.800;15.956;2023-03-19T02:24:54;100140.68;;;6.64;67.52
67987;BME280;54767;53.800;15.956;2023-03-19T02:27:24;100143.42;;;6.61;67.69
67987;BME280;54767;53.800;15.956;2023-03-19T02:29:52;100143.38;;;6.59;67.66
67987;BME280;54767;53.800;15.956;2023-03-19T02:32:20;100141.98;;;6.58;67.66
67987;BME280;54767;53.800;15.956;2023-03-19T02:34:48;100145.61;;;6.57;67.72
67987;BME280;54767;53.800;15.956;2023-03-19T02:37:28;100146.46;;;6.56;67.75
67987;BME280;54767;53.800;15.956;2023-03-19T02:40:07;100151.81;;;6.52;67.66
67987;BME280;54767;53.800;15.956;2023-03-19T02:42:38;100149.00;;;6.51;67.65
67987;BME280;54767;53.800;15.956;2023-03-19T02:45:07;100149.65;;;6.49;67.76
67987;BME280;54767;53.800;15.956;2023-03-19T02:47:35;100152.55;;;6.45;67.82
67987;BME280;54767;53.800;15.956;2023-03-19T02:50:04;100153.51;;;6.41;67.84
67987;BME280;54767;53.800;15.956;2023-03-19T02:52:33;100159.52;;;6.36;67.86
67987;BME280;54767;53.800;15.956;2023-03-19T02:55:01;100160.45;;;6.30;67.61
67987;BME280;54767;53.800;15.956;2023-03-19T02:57:30;100160.21;;;6.27;67.70
67987;BME280;54767;53.800;15.956;2023-03-19T02:59:58;100158.60;;;6.24;68.13
67987;BME280;54767;53.800;15.956;2023-03-19T03:02:26;100159.64;;;6.24;68.15
67987;BME280;54767;53.800;15.956;2023-03-19T03:04:55;100157.89;;;6.24;67.81
67987;BME280;54767;53.800;15.956;2023-03-19T03:07:23;100156.46;;;6.22;67.96
67987;BME280;54767;53.800;15.956;2023-03-19T03:09:51;100157.98;;;6.19;67.80
67987;BME280;54767;53.800;15.956;2023-03-19T03:12:20;100158.77;;;6.15;68.12
67987;BME280;54767;53.800;15.956;2023-03-19T03:14:49;100153.66;;;6.11;67.58
67987;BME280;54767;53.800;15.956;2023-03-19T03:17:18;100154.25;;;6.05;67.99
67987;BME280;54767;53.800;15.956;2023-03-19T03:19:47;100155.39;;;6.01;68.24
67987;BME280;54767;53.800;15.956;2023-03-19T03:22:15;100157.59;;;5.98;68.19
67987;BME280;54767;53.800;15.956;2023-03-19T03:24:43;100162.59;;;5.96;68.22
67987;BME280;54767;53.800;15.956;2023-03-19T03:27:12;100166.90;;;5.94;68.17
67987;BME280;54767;53.800;15.956;2023-03-19T03:29:40;100173.29;;;5.93;68.13
67987;BME280;54767;53.800;15.956;2023-03-19T03:32:09;100173.61;;;5.93;68.04
67987;BME280;54767;53.800;15.956;2023-03-19T03:34:37;100174.28;;;5.92;68.27
67987;BME280;54767;53.800;15.956;2023-03-19T03:37:05;100173.02;;;5.89;68.16
67987;BME280;54767;53.800;15.956;2023-03-19T03:39:34;100173.64;;;5.85;67.93
67987;BME280;54767;53.800;15.956;2023-03-19T03:42:03;100173.92;;;5.82;68.29
67987;BME280;54767;53.800;15.956;2023-03-19T03:44:32;100173.16;;;5.79;68.12
67987;BME280;54767;53.800;15.956;2023-03-19T03:47:00;100175.14;;;5.74;68.32
67987;BME280;54767;53.800;15.956;2023-03-19T03:49:30;100172.80;;;5.70;68.12
67987;BME280;54767;53.800;15.956;2023-03-19T03:51:58;100171.88;;;5.67;68.38
67987;BME280;54767;53.800;15.956;2023-03-19T03:54:26;100173.92;;;5.66;68.39
67987;BME280;54767;53.800;15.956;2023-03-19T03:56:55;100176.36;;;5.66;68.28
67987;BME280;54767;53.800;15.956;2023-03-19T03:59:23;100175.48;;;5.65;68.45
67987;BME280;54767;53.800;15.956;2023-03-19T04:01:52;100175.50;;;5.66;68.20
67987;BME280;54767;53.800;15.956;2023-03-19T04:04:20;100175.48;;;5.65;68.37
67987;BME280;54767;53.800;15.956;2023-03-19T04:06:49;100178.58;;;5.64;68.31
67987;BME280;54767;53.800;15.956;2023-03-19T04:09:17;100179.23;;;5.62;68.52
67987;BME280;54767;53.800;15.956;2023-03-19T04:11:46;100173.80;;;5.59;68.42
67987;BME280;54767;53.800;15.956;2023-03-19T04:14:18;100176.17;;;5.57;68.33
67987;BME280;54767;53.800;15.956;2023-03-19T04:16:46;100169.13;;;5.52;68.18
67987;BME280;54767;53.800;15.956;2023-03-19T04:19:15;100175.86;;;5.50;68.25
67987;BME280;54767;53.800;15.956;2023-03-19T04:21:44;100175.85;;;5.49;68.32
67987;BME280;54767;53.800;15.956;2023-03-19T04:24:13;100172.01;;;5.49;68.54
67987;BME280;54767;53.800;15.956;2023-03-19T04:26:41;100169.39;;;5.48;68.64
67987;BME280;54767;53.800;15.956;2023-03-19T04:29:09;100176.10;;;5.46;68.33
67987;BME280;54767;53.800;15.956;2023-03-19T04:31:37;100175.06;;;5.46;68.50
67987;BME280;54767;53.800;15.956;2023-03-19T04:34:06;100174.02;;;5.45;68.13
67987;BME280;54767;53.800;15.956;2023-03-19T04:36:34;100171.53;;;5.42;68.56
67987;BME280;54767;53.800;15.956;2023-03-19T04:39:03;100174.40;;;5.39;68.82
67987;BME280;54767;53.800;15.956;2023-03-19T04:41:31;100174.69;;;5.36;68.54
67987;BME280;54767;53.800;15.956;2023-03-19T04:44:00;100178.81;;;5.34;68.67
67987;BME280;54767;53.800;15.956;2023-03-19T04:46:29;100183.11;;;5.32;68.90
67987;BME280;54767;53.800;15.956;2023-03-19T04:48:57;100185.67;;;5.31;68.98
67987;BME280;54767;53.800;15.956;2023-03-19T04:51:27;100179.48;;;5.33;68.68
67987;BME280;54767;53.800;15.956;2023-03-19T04:53:55;100181.58;;;5.34;68.80
67987;BME280;54767;53.800;15.956;2023-03-19T04:56:24;100180.71;;;5.33;68.86
67987;BME280;54767;53.800;15.956;2023-03-19T04:58:53;100178.98;;;5.34;69.11
67987;BME280;54767;53.800;15.956;2023-03-19T05:01:21;100173.87;;;5.31;68.94
67987;BME280;54767;53.800;15.956;2023-03-19T05:03:50;100176.58;;;5.27;69.19
67987;BME280;54767;53.800;15.956;2023-03-19T05:06:18;100178.63;;;5.26;69.05
67987;BME280;54767;53.800;15.956;2023-03-19T05:08:47;100180.52;;;5.25;68.90
67987;BME280;54767;53.800;15.956;2023-03-19T05:11:15;100180.52;;;5.25;69.34
67987;BME280;54767;53.800;15.956;2023-03-19T05:13:44;100185.59;;;5.27;69.00
67987;BME280;54767;53.800;15.956;2023-03-19T05:16:13;100183.21;;;5.29;68.96
67987;BME280;54767;53.800;15.956;2023-03-19T05:18:41;100182.02;;;5.30;68.96
67987;BME280;54767;53.800;15.956;2023-03-19T05:21:11;100184.98;;;5.30;69.16
67987;BME280;54767;53.800;15.956;2023-03-19T05:23:39;100192.77;;;5.30;69.04
67987;BME280;54767;53.800;15.956;2023-03-19T05:26:08;100189.43;;;5.28;69.05
67987;BME280;54767;53.800;15.956;2023-03-19T05:28:36;100188.39;;;5.28;69.07
67987;BME280;54767;53.800;15.956;2023-03-19T05:31:04;100184.88;;;5.27;69.27
67987;BME280;54767;53.800;15.956;2023-03-19T05:33:33;100190.05;;;5.24;69.34
67987;BME280;54767;53.800;15.956;2023-03-19T05:36:01;100194.52;;;5.23;69.21
67987;BME280;54767;53.800;15.956;2023-03-19T05:38:30;100200.23;;;5.23;69.39
67987;BME280;54767;53.800;15.956;2023-03-19T05:41:06;100203.56;;;5.24;69.29
67987;BME280;54767;53.800;15.956;2023-03-19T05:43:34;100194.05;;;5.25;69.40
67987;BME280;54767;53.800;15.956;2023-03-19T05:46:03;100197.23;;;5.28;69.38
67987;BME280;54767;53.800;15.956;2023-03-19T05:48:31;100208.84;;;5.27;69.41
67987;BME280;54767;53.800;15.956;2023-03-19T05:51:00;100203.66;;;5.28;69.75
67987;BME280;54767;53.800;15.956;2023-03-19T05:53:30;100201.42;;;5.29;69.67
67987;BME280;54767;53.800;15.956;2023-03-19T05:55:58;100202.15;;;5.30;69.85
67987;BME280;54767;53.800;15.956;2023-03-19T05:58:26;100202.69;;;5.32;69.58
67987;BME280;54767;53.800;15.956;2023-03-19T06:00:55;100204.84;;;5.34;69.76
67987;BME280;54767;53.800;15.956;2023-03-19T06:03:23;100200.25;;;5.38;70.04
67987;BME280;54767;53.800;15.956;2023-03-19T06:05:53;100202.09;;;5.43;69.88
67987;BME280;54767;53.800;15.956;2023-03-19T06:08:22;100202.83;;;5.46;69.78
67987;BME280;54767;53.800;15.956;2023-03-19T06:10:51;100206.89;;;5.48;69.70
67987;BME280;54767;53.800;15.956;2023-03-19T06:13:20;100201.20;;;5.50;69.96
67987;BME280;54767;53.800;15.956;2023-03-19T06:15:48;100196.02;;;5.51;70.19
67987;BME280;54767;53.800;15.956;2023-03-19T06:18:17;100198.55;;;5.48;70.30
67987;BME280;54767;53.800;15.956;2023-03-19T06:20:46;100194.88;;;5.47;70.31
67987;BME280;54767;53.800;15.956;2023-03-19T06:23:15;100198.23;;;5.49;70.53
67987;BME280;54767;53.800;15.956;2023-03-19T06:25:43;100197.80;;;5.53;70.25
67987;BME280;54767;53.800;15.956;2023-03-19T06:28:12;100197.04;;;5.58;70.48
67987;BME280;54767;53.800;15.956;2023-03-19T06:30:41;100195.26;;;5.64;70.43
67987;BME280;54767;53.800;15.956;2023-03-19T06:33:09;100188.64;;;5.71;70.51
67987;BME280;54767;53.800;15.956;2023-03-19T06:35:38;100189.82;;;5.79;70.45
67987;BME280;54767;53.800;15.956;2023-03-19T06:38:07;100199.20;;;5.86;70.75
67987;BME280;54767;53.800;15.956;2023-03-19T06:40:35;100194.27;;;5.92;71.05
67987;BME280;54767;53.800;15.956;2023-03-19T06:43:04;100196.13;;;5.97;71.35
67987;BME280;54767;53.800;15.956;2023-03-19T06:45:32;100204.54;;;6.01;71.11
67987;BME280;54767;53.800;15.956;2023-03-19T06:48:00;100205.13;;;6.04;71.20
67987;BME280;54767;53.800;15.956;2023-03-19T06:50:29;100203.87;;;6.11;71.43
67987;BME280;54767;53.800;15.956;2023-03-19T06:52:57;100206.80;;;6.19;71.54
67987;BME280;54767;53.800;15.956;2023-03-19T06:55:25;100210.98;;;6.28;71.24
67987;BME280;54767;53.800;15.956;2023-03-19T06:57:54;100218.33;;;6.40;71.58
67987;BME280;54767;53.800;15.956;2023-03-19T07:00:22;100220.09;;;6.50;71.77
67987;BME280;54767;53.800;15.956;2023-03-19T07:02:51;100225.48;;;6.61;71.83
67987;BME280;54767;53.800;15.956;2023-03-19T07:05:19;100233.30;;;6.69;71.84
67987;BME280;54767;53.800;15.956;2023-03-19T07:07:48;100234.83;;;6.77;71.92
67987;BME280;54767;53.800;15.956;2023-03-19T07:10:19;100238.98;;;6.86;71.97
67987;BME280;54767;53.800;15.956;2023-03-19T07:12:48;100235.30;;;6.95;71.98
67987;BME280;54767;53.800;15.956;2023-03-19T07:15:17;100238.95;;;7.07;72.02
67987;BME280;54767;53.800;15.956;2023-03-19T07:17:47;100238.98;;;7.18;72.20
67987;BME280;54767;53.800;15.956;2023-03-19T07:20:16;100232.70;;;7.29;72.08
67987;BME280;54767;53.800;15.956;2023-03-19T07:22:44;100232.48;;;7.38;72.21
67987;BME280;54767;53.800;15.956;2023-03-19T07:25:13;100232.96;;;7.47;71.97
67987;BME280;54767;53.800;15.956;2023-03-19T07:27:42;100234.64;;;7.55;72.00
67987;BME280;54767;53.800;15.956;2023-03-19T07:30:11;100231.42;;;7.61;71.75
67987;BME280;54767;53.800;15.956;2023-03-19T07:32:40;100230.11;;;7.67;71.62
67987;BME280;54767;53.800;15.956;2023-03-19T07:35:08;100231.40;;;7.73;71.50
67987;BME280;54767;53.800;15.956;2023-03-19T07:37:37;100230.45;;;7.79;71.43
67987;BME280;54767;53.800;15.956;2023-03-19T07:40:06;100229.83;;;7.85;71.04
67987;BME280;54767;53.800;15.956;2023-03-19T07:42:35;100231.83;;;7.91;70.92
67987;BME280;54767;53.800;15.956;2023-03-19T07:45:05;100231.04;;;7.98;70.76
67987;BME280;54767;53.800;15.956;2023-03-19T07:47:33;100235.83;;;8.05;70.62
67987;BME280;54767;53.800;15.956;2023-03-19T07:50:01;100232.73;;;8.07;70.65
67987;BME280;54767;53.800;15.956;2023-03-19T07:52:31;100236.64;;;8.15;70.46
67987;BME280;54767;53.800;15.956;2023-03-19T07:54:59;100235.68;;;8.22;70.65
67987;BME280;54767;53.800;15.956;2023-03-19T07:57:28;100233.52;;;8.31;70.80
67987;BME280;54767;53.800;15.956;2023-03-19T07:59:56;100236.61;;;8.41;70.57
67987;BME280;54767;53.800;15.956;2023-03-19T08:02:25;100241.62;;;8.52;70.25
67987;BME280;54767;53.800;15.956;2023-03-19T08:04:54;100245.74;;;8.64;70.06
67987;BME280;54767;53.800;15.956;2023-03-19T08:07:23;100250.22;;;8.75;69.79
67987;BME280;54767;53.800;15.956;2023-03-19T08:09:51;100246.12;;;8.85;69.41
67987;BME280;54767;53.800;15.956;2023-03-19T08:12:20;100242.56;;;8.96;69.39
67987;BME280;54767;53.800;15.956;2023-03-19T08:14:48;100246.15;;;9.08;69.39
67987;BME280;54767;53.800;15.956;2023-03-19T08:17:16;100245.54;;;9.18;69.07
67987;BME280;54767;53.800;15.956;2023-03-19T08:19:45;100237.56;;;9.26;69.09
67987;BME280;54767;53.800;15.956;2023-03-19T08:22:14;100233.98;;;9.37;69.03
67987;BME280;54767;53.800;15.956;2023-03-19T08:24:42;100228.11;;;9.49;68.88
67987;BME280;54767;53.800;15.956;2023-03-19T08:27:10;100229.39;;;9.59;68.74
67987;BME280;54767;53.800;15.956;2023-03-19T08:29:39;100230.85;;;9.69;68.40
67987;BME280;54767;53.800;15.956;2023-03-19T08:32:07;100225.66;;;9.79;68.27
67987;BME280;54767;53.800;15.956;2023-03-19T08:34:36;100226.77;;;9.89;68.29
67987;BME280;54767;53.800;15.956;2023-03-19T08:37:04;100226.98;;;10.01;68.24
67987;BME280;54767;53.800;15.956;2023-03-19T08:39:32;100229.65;;;10.12;67.93
67987;BME280;54767;53.800;15.956;2023-03-19T08:42:01;100230.74;;;10.24;67.79
67987;BME280;54767;53.800;15.956;2023-03-19T08:44:29;100235.01;;;10.36;67.56
67987;BME280;54767;53.800;15.956;2023-03-19T08:46:58;100235.20;;;10.49;67.78
67987;BME280;54767;53.800;15.956;2023-03-19T08:49:26;100231.04;;;10.61;67.67
67987;BME280;54767;53.800;15.956;2023-03-19T08:51:54;100232.80;;;10.75;67.33
67987;BME280;54767;53.800;15.956;2023-03-19T08:54:23;100233.52;;;10.87;67.12
67987;BME280;54767;53.800;15.956;2023-03-19T08:56:51;100234.75;;;10.99;67.04
67987;BME280;54767;53.800;15.956;2023-03-19T08:59:19;100230.55;;;11.11;67.03
67987;BME280;54767;53.800;15.956;2023-03-19T09:01:50;100233.69;;;11.21;66.92
67987;BME280;54767;53.800;15.956;2023-03-19T09:04:20;100229.13;;;11.28;66.43
67987;BME280;54767;53.800;15.956;2023-03-19T09:06:49;100233.33;;;11.37;66.47
67987;BME280;54767;53.800;15.956;2023-03-19T09:09:22;100232.79;;;11.46;66.45
67987;BME280;54767;53.800;15.956;2023-03-19T09:11:51;100233.64;;;11.55;66.23
67987;BME280;54767;53.800;15.956;2023-03-19T09:14:20;100233.98;;;11.65;66.17
67987;BME280;54767;53.800;15.956;2023-03-19T09:16:50;100237.11;;;11.74;66.21
67987;BME280;54767;53.800;15.956;2023-03-19T09:19:19;100235.86;;;11.85;66.18
67987;BME280;54767;53.800;15.956;2023-03-19T09:21:47;100235.68;;;11.95;65.78
67987;BME280;54767;53.800;15.956;2023-03-19T09:24:16;100240.38;;;12.04;65.49
67987;BME280;54767;53.800;15.956;2023-03-19T09:26:46;100236.30;;;12.11;65.36
67987;BME280;54767;53.800;15.956;2023-03-19T09:29:14;100234.52;;;12.19;65.45
67987;BME280;54767;53.800;15.956;2023-03-19T09:31:44;100239.38;;;12.29;65.04
67987;BME280;54767;53.800;15.956;2023-03-19T09:34:12;100238.11;;;12.37;64.94
67987;BME280;54767;53.800;15.956;2023-03-19T09:36:41;100237.73;;;12.44;64.59
67987;BME280;54767;53.800;15.956;2023-03-19T09:39:09;100239.79;;;12.51;64.54
67987;BME280;54767;53.800;15.956;2023-03-19T09:44:35;100242.35;;;12.64;64.24
67987;BME280;54767;53.800;15.956;2023-03-19T09:49:58;100236.49;;;12.72;63.65
67987;BME280;54767;53.800;15.956;2023-03-19T09:57:55;100234.10;;;12.89;63.46
67987;BME280;54767;53.800;15.956;2023-03-19T10:17:42;100243.06;;;13.10;63.01
67987;BME280;54767;53.800;15.956;2023-03-19T10:26:20;100244.92;;;13.18;62.30
67987;BME280;54767;53.800;15.956;2023-03-19T10:29:13;100241.89;;;13.24;62.49
67987;BME280;54767;53.800;15.956;2023-03-19T10:31:58;100241.50;;;13.31;62.71
67987;BME280;54767;53.800;15.956;2023-03-19T10:34:51;100241.09;;;13.39;62.81
67987;BME280;54767;53.800;15.956;2023-03-19T10:37:37;100227.48;;;13.45;63.04
67987;BME280;54767;53.800;15.956;2023-03-19T10:40:37;100230.89;;;13.56;62.80
67987;BME280;54767;53.800;15.956;2023-03-19T10:43:22;100239.89;;;13.69;62.49
67987;BME280;54767;53.800;15.956;2023-03-19T10:45:53;100242.31;;;13.74;62.00
67987;BME280;54767;53.800;15.956;2023-03-19T10:48:25;100243.17;;;13.75;61.59
67987;BME280;54767;53.800;15.956;2023-03-19T10:51:00;100241.08;;;13.74;61.47
67987;BME280;54767;53.800;15.956;2023-03-19T10:53:36;100241.04;;;13.78;61.96
67987;BME280;54767;53.800;15.956;2023-03-19T10:56:22;100239.19;;;13.87;61.73
67987;BME280;54767;53.800;15.956;2023-03-19T10:59:25;100239.83;;;13.91;61.42
67987;BME280;54767;53.800;15.956;2023-03-19T11:02:14;100236.95;;;13.96;61.43
67987;BME280;54767;53.800;15.956;2023-03-19T11:04:44;100238.14;;;14.01;61.68
67987;BME280;54767;53.800;15.956;2023-03-19T11:07:16;100239.98;;;14.08;61.32
67987;BME280;54767;53.800;15.956;2023-03-19T11:09:49;100241.19;;;14.10;61.25
67987;BME280;54767;53.800;15.956;2023-03-19T11:12:27;100239.38;;;14.15;61.15
67987;BME280;54767;53.800;15.956;2023-03-19T11:15:02;100239.69;;;14.18;60.79
67987;BME280;54767;53.800;15.956;2023-03-19T11:17:40;100241.74;;;14.22;61.01
67987;BME280;54767;53.800;15.956;2023-03-19T11:20:34;100242.37;;;14.28;61.02
67987;BME280;54767;53.800;15.956;2023-03-19T11:23:14;100240.07;;;14.29;60.71
67987;BME280;54767;53.800;15.956;2023-03-19T11:25:50;100234.10;;;14.27;60.25
67987;BME280;54767;53.800;15.956;2023-03-19T11:28:42;100229.06;;;14.23;60.05
67987;BME280;54767;53.800;15.956;2023-03-19T11:32:31;100226.85;;;14.16;59.66
67987;BME280;54767;53.800;15.956;2023-03-19T11:38:02;100218.36;;;14.06;59.91
67987;BME280;54767;53.800;15.956;2023-03-19T11:44:51;100220.70;;;14.16;59.72
67987;BME280;54767;53.800;15.956;2023-03-19T11:46:50;100220.62;;;14.22;59.74
67987;BME280;54767;53.800;15.956;2023-03-19T11:49:44;100222.81;;;14.30;59.85
67987;BME280;54767;53.800;15.956;2023-03-19T11:52:32;100222.84;;;14.40;59.71
67987;BME280;54767;53.800;15.956;2023-03-19T11:55:14;100221.16;;;14.47;59.28
67987;BME280;54767;53.800;15.956;2023-03-19T12:06:00;100219.80;;;14.59;58.54
67987;BME280;54767;53.800;15.956;2023-03-19T12:09:00;100218.17;;;14.62;58.63
67987;BME280;54767;53.800;15.956;2023-03-19T12:28:16;100204.44;;;15.16;58.35
67987;BME280;54767;53.800;15.956;2023-03-19T12:31:09;100202.10;;;15.18;58.21
67987;BME280;54767;53.800;15.956;2023-03-19T12:33:51;100203.44;;;15.23;58.03
67987;BME280;54767;53.800;15.956;2023-03-19T12:36:37;100199.65;;;15.27;58.17
67987;BME280;54767;53.800;15.956;2023-03-19T12:39:33;100202.03;;;15.32;58.17
67987;BME280;54767;53.800;15.956;2023-03-19T12:42:05;100196.34;;;15.34;58.01
67987;BME280;54767;53.800;15.956;2023-03-19T12:44:43;100198.06;;;15.36;58.01
67987;BME280;54767;53.800;15.956;2023-03-19T12:47:17;100195.79;;;15.36;57.94
67987;BME280;54767;53.800;15.956;2023-03-19T12:49:56;100195.07;;;15.36;58.10
67987;BME280;54767;53.800;15.956;2023-03-19T12:52:33;100195.62;;;15.35;58.21
67987;BME280;54767;53.800;15.956;2023-03-19T12:57:57;100189.69;;;15.32;58.04
67987;BME280;54767;53.800;15.956;2023-03-19T13:00:36;100184.80;;;15.29;58.00
67987;BME280;54767;53.800;15.956;2023-03-19T13:08:56;100181.17;;;15.25;58.46
67987;BME280;54767;53.800;15.956;2023-03-19T13:16:40;100173.58;;;15.25;58.76
67987;BME280;54767;53.800;15.956;2023-03-19T13:19:42;100176.22;;;15.26;58.95
67987;BME280;54767;53.800;15.956;2023-03-19T13:22:17;100179.21;;;15.26;59.18
67987;BME280;54767;53.800;15.956;2023-03-19T13:24:47;100175.19;;;15.25;59.31
67987;BME280;54767;53.800;15.956;2023-03-19T13:27:22;100180.45;;;15.26;59.43
67987;BME280;54767;53.800;15.956;2023-03-19T13:35:52;100176.02;;;15.28;59.69
67987;BME280;54767;53.800;15.956;2023-03-19T13:38:28;100171.58;;;15.29;59.69
67987;BME280;54767;53.800;15.956;2023-03-19T13:41:01;100170.30;;;15.31;59.89
67987;BME280;54767;53.800;15.956;2023-03-19T13:48:51;100165.79;;;15.55;59.87
67987;BME280;54767;53.800;15.956;2023-03-19T13:51:27;100168.46;;;15.63;59.74
67987;BME280;54767;53.800;15.956;2023-03-19T13:56:31;100168.49;;;15.72;59.53
67987;BME280;54767;53.800;15.956;2023-03-19T14:01:44;100161.70;;;15.76;59.34
67987;BME280;54767;53.800;15.956;2023-03-19T14:04:32;100162.92;;;15.77;59.28
67987;BME280;54767;53.800;15.956;2023-03-19T14:07:11;100160.23;;;15.79;59.32
67987;BME280;54767;53.800;15.956;2023-03-19T14:18:01;100157.61;;;15.78;58.85
67987;BME280;54767;53.800;15.956;2023-03-19T14:20:49;100159.05;;;15.76;58.84
67987;BME280;54767;53.800;15.956;2023-03-19T14:23:23;100163.15;;;15.75;58.90
67987;BME280;54767;53.800;15.956;2023-03-19T14:26:19;100163.91;;;15.72;58.75
67987;BME280;54767;53.800;15.956;2023-03-19T14:31:48;100165.77;;;15.66;58.61
67987;BME280;54767;53.800;15.956;2023-03-19T14:34:28;100164.42;;;15.63;58.67
67987;BME280;54767;53.800;15.956;2023-03-19T14:37:03;100168.04;;;15.58;58.57
67987;BME280;54767;53.800;15.956;2023-03-19T14:39:42;100167.39;;;15.55;58.68
67987;BME280;54767;53.800;15.956;2023-03-19T14:50:48;100166.88;;;15.45;58.64
67987;BME280;54767;53.800;15.956;2023-03-19T14:53:54;100165.90;;;15.41;58.66
67987;BME280;54767;53.800;15.956;2023-03-19T14:56:30;100164.90;;;15.37;58.89
67987;BME280;54767;53.800;15.956;2023-03-19T14:58:59;100166.36;;;15.34;58.92
67987;BME280;54767;53.800;15.956;2023-03-19T15:01:33;100167.99;;;15.33;59.17
67987;BME280;54767;53.800;15.956;2023-03-19T15:04:10;100164.86;;;15.30;59.31
67987;BME280;54767;53.800;15.956;2023-03-19T15:06:41;100165.44;;;15.27;59.21
67987;BME280;54767;53.800;15.956;2023-03-19T15:09:20;100167.77;;;15.25;59.33